createdAt,value
2018-05-03T00:00:17.266Z,1004.98
2018-05-03T00:01:17.280Z,1005.01
2018-05-03T00:02:17.293Z,1005.00
2018-05-03T00:03:17.320Z,1004.99
2018-05-03T00:04:17.332Z,1004.97
2018-05-03T00:05:17.358Z,1004.99
2018-05-03T00:06:17.373Z,1004.97
2018-05-03T00:07:17.401Z,1004.98
2018-05-03T00:08:17.412Z,1004.98
2018-05-03T00:09:17.437Z,1005.00
2018-05-03T00:10:17.452Z,1005.00
2018-05-03T00:11:17.477Z,1004.94
2018-05-03T00:12:17.504Z,1004.98
2018-05-03T00:13:17.529Z,1004.98
2018-05-03T00:14:17.543Z,1004.94
2018-05-03T00:15:17.556Z,1004.87
2018-05-03T00:16:17.583Z,1004.88
2018-05-03T00:17:17.594Z,1004.85
2018-05-03T00:18:17.625Z,1004.81
2018-05-03T00:19:17.635Z,1004.81
2018-05-03T00:20:17.661Z,1004.80
2018-05-03T00:21:17.675Z,1004.80
2018-05-03T00:22:17.699Z,1004.79
2018-05-03T00:23:17.714Z,1004.77
2018-05-03T00:24:17.740Z,1004.73
2018-05-03T00:25:17.753Z,1004.79
2018-05-03T00:26:17.780Z,1004.77
2018-05-03T00:27:17.793Z,1004.83
2018-05-03T00:28:17.821Z,1004.82
2018-05-03T00:29:17.832Z,1004.92
2018-05-03T00:30:17.861Z,1004.96
2018-05-03T00:31:17.873Z,1004.96
2018-05-03T00:32:17.899Z,1004.98
2018-05-03T00:33:17.924Z,1005.02
2018-05-03T00:34:17.937Z,1005.03
2018-05-03T00:35:17.964Z,1005.03
2018-05-03T00:36:17.976Z,1005.01
2018-05-03T00:37:18.004Z,1005.06
2018-05-03T00:38:18.016Z,1004.99
2018-05-03T00:39:18.042Z,1005.03
2018-05-03T00:40:18.056Z,1005.03
2018-05-03T00:41:18.081Z,1005.01
2018-05-03T00:42:18.095Z,1005.04
2018-05-03T00:43:18.121Z,1005.09
2018-05-03T00:44:18.135Z,1005.10
2018-05-03T00:45:18.161Z,1005.14
2018-05-03T00:46:18.174Z,1005.18
2018-05-03T00:47:18.199Z,1005.23
2018-05-03T00:48:18.212Z,1005.29
2018-05-03T00:49:18.242Z,1005.31
2018-05-03T00:50:18.252Z,1005.27
2018-05-03T00:51:18.279Z,1005.29
2018-05-03T00:52:18.293Z,1005.30
2018-05-03T00:53:18.318Z,1005.22
2018-05-03T00:54:18.331Z,1005.25
2018-05-03T00:55:18.357Z,1005.25
2018-05-03T00:56:18.371Z,1005.23
2018-05-03T00:57:18.396Z,1005.26
2018-05-03T00:58:18.410Z,1005.25
2018-05-03T00:59:18.437Z,1005.20
2018-05-03T01:00:18.465Z,1005.19
2018-05-03T01:01:18.480Z,1005.19
2018-05-03T01:02:18.489Z,1005.16
2018-05-03T01:03:18.515Z,1005.15
2018-05-03T01:04:18.540Z,1005.15
2018-05-03T01:05:18.555Z,1005.10
2018-05-03T01:06:18.569Z,1005.15
2018-05-03T01:07:18.594Z,1005.11
2018-05-03T01:08:18.620Z,1005.14
2018-05-03T01:09:18.633Z,1005.14
2018-05-03T01:10:18.662Z,1005.15
2018-05-03T01:11:18.674Z,1005.23
2018-05-03T01:12:18.698Z,1005.24
2018-05-03T01:13:18.712Z,1005.30
2018-05-03T01:14:18.739Z,1005.25
2018-05-03T01:15:18.751Z,1005.31
2018-05-03T01:16:18.778Z,1005.33
2018-05-03T01:17:18.792Z,1005.33
2018-05-03T01:18:18.818Z,1005.35
2018-05-03T01:19:18.830Z,1005.30
2018-05-03T01:20:18.857Z,1005.31
2018-05-03T01:21:18.871Z,1005.35
2018-05-03T01:22:18.896Z,1005.33
2018-05-03T01:23:18.911Z,1005.35
2018-05-03T01:24:18.935Z,1005.36
2018-05-03T01:25:18.949Z,1005.40
2018-05-03T01:26:18.976Z,1005.39
2018-05-03T01:27:18.987Z,1005.41
2018-05-03T01:28:19.016Z,1005.41
2018-05-03T01:29:19.027Z,1005.38
2018-05-03T01:30:19.059Z,1005.36
2018-05-03T01:31:19.068Z,1005.32
2018-05-03T01:32:19.093Z,1005.34
2018-05-03T01:33:19.110Z,1005.36
2018-05-03T01:34:19.137Z,1005.38
2018-05-03T01:35:19.145Z,1005.37
2018-05-03T01:36:19.175Z,1005.36
2018-05-03T01:37:19.186Z,1005.34
2018-05-03T01:38:19.211Z,1005.33
2018-05-03T01:39:19.224Z,1005.35
2018-05-03T01:40:19.250Z,1005.34
2018-05-03T01:41:19.265Z,1005.35
2018-05-03T01:42:19.290Z,1005.30
2018-05-03T01:43:19.303Z,1005.33
2018-05-03T01:44:19.330Z,1005.32
2018-05-03T01:45:19.346Z,1005.33
2018-05-03T01:46:19.369Z,1005.32
2018-05-03T01:47:19.382Z,1005.28
2018-05-03T01:48:19.408Z,1005.27
2018-05-03T01:49:19.424Z,1005.27
2018-05-03T01:50:19.451Z,1005.25
2018-05-03T01:51:19.461Z,1005.23
2018-05-03T01:52:19.487Z,1005.23
2018-05-03T01:53:19.501Z,1005.26
2018-05-03T01:54:19.526Z,1005.35
2018-05-03T01:55:19.540Z,1005.36
2018-05-03T01:56:19.565Z,1005.36
2018-05-03T01:57:19.581Z,1005.32
2018-05-03T01:58:19.607Z,1005.36
2018-05-03T01:59:19.619Z,1005.37
2018-05-03T02:00:19.659Z,1005.38
2018-05-03T02:01:19.659Z,1005.37
2018-05-03T02:02:19.685Z,1005.38
2018-05-03T02:03:19.697Z,1005.44
2018-05-03T02:04:19.724Z,1005.43
2018-05-03T02:05:19.739Z,1005.44
2018-05-03T02:06:19.764Z,1005.40
2018-05-03T02:07:19.777Z,1005.41
2018-05-03T02:08:19.803Z,1005.38
2018-05-03T02:09:19.817Z,1005.35
2018-05-03T02:10:19.844Z,1005.31
2018-05-03T02:11:19.857Z,1005.26
2018-05-03T02:12:19.895Z,1005.24
2018-05-03T02:13:19.900Z,1005.23
2018-05-03T02:14:19.923Z,1005.18
2018-05-03T02:15:19.934Z,1005.11
2018-05-03T02:16:19.961Z,1005.08
2018-05-03T02:17:19.975Z,1005.05
2018-05-03T02:18:20.001Z,1005.01
2018-05-03T02:19:20.026Z,1005.00
2018-05-03T02:20:20.040Z,1005.00
2018-05-03T02:21:20.053Z,1004.95
2018-05-03T02:22:20.085Z,1004.92
2018-05-03T02:23:20.108Z,1004.95
2018-05-03T02:24:20.118Z,1004.93
2018-05-03T02:25:20.132Z,1004.97
2018-05-03T02:26:20.159Z,1004.97
2018-05-03T02:27:20.172Z,1004.94
2018-05-03T02:28:20.197Z,1004.93
2018-05-03T02:29:20.216Z,1004.89
2018-05-03T02:30:20.226Z,1004.93
2018-05-03T02:31:20.250Z,1004.92
2018-05-03T02:32:20.279Z,1004.88
2018-05-03T02:33:20.290Z,1004.88
2018-05-03T02:34:20.326Z,1004.86
2018-05-03T02:35:20.329Z,1004.84
2018-05-03T02:36:20.344Z,1004.86
2018-05-03T02:37:20.369Z,1004.85
2018-05-03T02:38:20.382Z,1004.85
2018-05-03T02:39:20.409Z,1004.82
2018-05-03T02:40:20.422Z,1004.81
2018-05-03T02:41:20.449Z,1004.85
2018-05-03T02:42:20.461Z,1004.84
2018-05-03T02:43:20.487Z,1004.84
2018-05-03T02:44:20.502Z,1004.80
2018-05-03T02:45:20.537Z,1004.76
2018-05-03T02:46:20.541Z,1004.73
2018-05-03T02:47:20.567Z,1004.76
2018-05-03T02:48:20.594Z,1004.80
2018-05-03T02:49:20.606Z,1004.80
2018-05-03T02:50:20.619Z,1004.84
2018-05-03T02:51:20.636Z,1004.86
2018-05-03T02:52:20.660Z,1004.85
2018-05-03T02:53:20.673Z,1004.90
2018-05-03T02:54:20.699Z,1004.94
2018-05-03T02:55:20.713Z,1004.93
2018-05-03T02:56:20.738Z,1004.98
2018-05-03T02:57:20.755Z,1004.99
2018-05-03T02:58:20.776Z,1005.00
2018-05-03T02:59:20.792Z,1005.01
2018-05-03T03:00:20.820Z,1005.10
2018-05-03T03:01:20.830Z,1005.12
2018-05-03T03:02:20.911Z,1005.14
2018-05-03T03:03:20.870Z,1005.20
2018-05-03T03:04:20.896Z,1005.24
2018-05-03T03:05:20.909Z,1005.22
2018-05-03T03:06:20.934Z,1005.22
2018-05-03T03:07:20.949Z,1005.22
2018-05-03T03:08:20.962Z,1005.22
2018-05-03T03:09:20.988Z,1005.20
2018-05-03T03:10:21.004Z,1005.16
2018-05-03T03:11:21.029Z,1005.20
2018-05-03T03:12:21.040Z,1005.23
2018-05-03T03:13:21.069Z,1005.27
2018-05-03T03:14:21.082Z,1005.31
2018-05-03T03:15:21.107Z,1005.45
2018-05-03T03:16:21.120Z,1005.45
2018-05-03T03:17:21.145Z,1005.45
2018-05-03T03:18:21.160Z,1005.42
2018-05-03T03:19:21.173Z,1005.43
2018-05-03T03:20:21.212Z,1005.45
2018-05-03T03:21:21.213Z,1005.43
2018-05-03T03:22:21.238Z,1005.43
2018-05-03T03:23:21.252Z,1005.37
2018-05-03T03:24:21.278Z,1005.35
2018-05-03T03:25:21.294Z,1005.37
2018-05-03T03:26:21.318Z,1005.36
2018-05-03T03:27:21.331Z,1005.33
2018-05-03T03:28:21.356Z,1005.34
2018-05-03T03:29:21.371Z,1005.34
2018-05-03T03:30:21.396Z,1005.37
2018-05-03T03:31:21.409Z,1005.37
2018-05-03T03:32:21.424Z,1005.37
2018-05-03T03:33:21.450Z,1005.42
2018-05-03T03:34:21.463Z,1005.46
2018-05-03T03:35:21.488Z,1005.50
2018-05-03T03:36:21.503Z,1005.52
2018-05-03T03:37:21.529Z,1005.53
2018-05-03T03:38:21.545Z,1005.59
2018-05-03T03:39:21.555Z,1005.57
2018-05-03T03:40:21.581Z,1005.59
2018-05-03T03:41:21.594Z,1005.61
2018-05-03T03:42:21.621Z,1005.65
2018-05-03T03:43:21.634Z,1005.67
2018-05-03T03:44:21.659Z,1005.67
2018-05-03T03:45:21.672Z,1005.70
2018-05-03T03:46:21.689Z,1005.67
2018-05-03T03:47:21.713Z,1005.73
2018-05-03T03:48:21.726Z,1005.73
2018-05-03T03:49:21.752Z,1005.67
2018-05-03T03:50:21.765Z,1005.73
2018-05-03T03:51:21.792Z,1005.68
2018-05-03T03:52:21.806Z,1005.66
2018-05-03T03:53:21.875Z,1005.68
2018-05-03T03:54:21.844Z,1005.71
2018-05-03T03:55:21.857Z,1005.73
2018-05-03T03:56:21.883Z,1005.73
2018-05-03T03:57:21.899Z,1005.74
2018-05-03T03:58:21.910Z,1005.74
2018-05-03T03:59:21.938Z,1005.76
2018-05-03T04:00:21.954Z,1005.75
2018-05-03T04:01:21.977Z,1005.78
2018-05-03T04:02:21.991Z,1005.78
2018-05-03T04:03:22.016Z,1005.84
2018-05-03T04:04:22.034Z,1005.88
2018-05-03T04:05:22.041Z,1005.87
2018-05-03T04:06:22.067Z,1005.91
2018-05-03T04:07:22.082Z,1005.93
2018-05-03T04:08:22.107Z,1005.91
2018-05-03T04:09:22.121Z,1005.93
2018-05-03T04:10:22.135Z,1005.95
2018-05-03T04:11:22.162Z,1005.95
2018-05-03T04:12:22.175Z,1005.97
2018-05-03T04:13:22.200Z,1005.94
2018-05-03T04:14:22.214Z,1005.91
2018-05-03T04:15:22.275Z,1005.94
2018-05-03T04:16:22.254Z,1005.90
2018-05-03T04:17:22.267Z,1005.87
2018-05-03T04:18:22.294Z,1005.81
2018-05-03T04:19:22.307Z,1005.82
2018-05-03T04:20:22.331Z,1005.77
2018-05-03T04:21:22.346Z,1005.75
2018-05-03T04:22:22.466Z,1005.76
2018-05-03T04:23:22.385Z,1005.78
2018-05-03T04:24:22.399Z,1005.80
2018-05-03T04:25:22.425Z,1005.76
2018-05-03T04:26:22.437Z,1005.79
2018-05-03T04:27:22.466Z,1005.84
2018-05-03T04:28:22.478Z,1005.84
2018-05-03T04:29:22.491Z,1005.85
2018-05-03T04:30:22.516Z,1005.82
2018-05-03T04:31:22.535Z,1005.86
2018-05-03T04:32:22.557Z,1005.84
2018-05-03T04:33:22.586Z,1005.80
2018-05-03T04:34:22.596Z,1005.83
2018-05-03T04:35:22.610Z,1005.81
2018-05-03T04:36:22.624Z,1005.84
2018-05-03T04:37:22.648Z,1005.82
2018-05-03T04:38:22.662Z,1005.76
2018-05-03T04:39:22.689Z,1005.74
2018-05-03T04:40:22.714Z,1005.71
2018-05-03T04:41:22.730Z,1005.66
2018-05-03T04:42:22.743Z,1005.65
2018-05-03T04:43:22.767Z,1005.67
2018-05-03T04:44:22.780Z,1005.69
2018-05-03T04:45:22.795Z,1005.70
2018-05-03T04:46:22.821Z,1005.75
2018-05-03T04:47:22.833Z,1005.78
2018-05-03T04:48:22.860Z,1005.83
2018-05-03T04:49:22.874Z,1005.80
2018-05-03T04:50:22.899Z,1005.77
2018-05-03T04:51:22.913Z,1005.76
2018-05-03T04:52:22.939Z,1005.78
2018-05-03T04:53:22.951Z,1005.75
2018-05-03T04:54:22.978Z,1005.74
2018-05-03T04:55:22.993Z,1005.74
2018-05-03T04:56:23.017Z,1005.70
2018-05-03T04:57:23.031Z,1005.74
2018-05-03T04:58:23.047Z,1005.71
2018-05-03T04:59:23.078Z,1005.74
2018-05-03T05:00:23.095Z,1005.65
2018-05-03T05:01:23.150Z,1005.63
2018-05-03T05:02:23.123Z,1005.67
2018-05-03T05:03:23.162Z,1005.72
2018-05-03T05:04:23.163Z,1005.74
2018-05-03T05:05:23.189Z,1005.76
2018-05-03T05:06:23.201Z,1005.75
2018-05-03T05:07:23.228Z,1005.74
2018-05-03T05:08:23.254Z,1005.77
2018-05-03T05:09:23.272Z,1005.74
2018-05-03T05:10:23.281Z,1005.76
2018-05-03T05:11:23.306Z,1005.81
2018-05-03T05:12:23.322Z,1005.83
2018-05-03T05:13:23.347Z,1005.90
2018-05-03T05:14:23.360Z,1005.98
2018-05-03T05:15:23.386Z,1006.01
2018-05-03T05:16:23.399Z,1005.98
2018-05-03T05:17:23.427Z,1006.02
2018-05-03T05:18:23.438Z,1006.05
2018-05-03T05:19:23.464Z,1006.01
2018-05-03T05:20:23.480Z,1006.03
2018-05-03T05:21:23.505Z,1006.06
2018-05-03T05:22:23.517Z,1006.07
2018-05-03T05:23:23.543Z,1006.09
2018-05-03T05:24:23.558Z,1006.05
2018-05-03T05:25:23.583Z,1006.01
2018-05-03T05:26:23.596Z,1006.01
2018-05-03T05:27:23.622Z,1005.99
2018-05-03T05:28:23.636Z,1005.99
2018-05-03T05:29:23.664Z,1005.99
2018-05-03T05:30:23.675Z,1006.05
2018-05-03T05:31:23.704Z,1006.09
2018-05-03T05:32:23.716Z,1006.08
2018-05-03T05:33:23.741Z,1006.07
2018-05-03T05:34:23.754Z,1006.08
2018-05-03T05:35:23.779Z,1006.09
2018-05-03T05:36:23.810Z,1006.12
2018-05-03T05:37:23.820Z,1006.13
2018-05-03T05:38:23.851Z,1006.18
2018-05-03T05:39:23.859Z,1006.19
2018-05-03T05:40:23.886Z,1006.21
2018-05-03T05:41:23.898Z,1006.21
2018-05-03T05:42:23.925Z,1006.20
2018-05-03T05:43:23.937Z,1006.18
2018-05-03T05:44:24.041Z,1006.21
2018-05-03T05:45:23.982Z,1006.21
2018-05-03T05:46:24.004Z,1006.20
2018-05-03T05:47:24.016Z,1006.17
2018-05-03T05:48:24.044Z,1006.13
2018-05-03T05:49:24.068Z,1006.09
2018-05-03T05:50:24.088Z,1006.07
2018-05-03T05:51:24.109Z,1006.01
2018-05-03T05:52:24.123Z,1005.97
2018-05-03T05:53:24.147Z,1005.97
2018-05-03T05:54:24.162Z,1005.95
2018-05-03T05:55:24.187Z,1005.97
2018-05-03T05:56:24.213Z,1005.94
2018-05-03T05:57:24.226Z,1005.98
2018-05-03T05:58:24.240Z,1006.06
2018-05-03T05:59:24.266Z,1006.07
2018-05-03T06:00:24.293Z,1006.13
2018-05-03T06:01:24.306Z,1006.15
2018-05-03T06:02:24.332Z,1006.18
2018-05-03T06:03:24.346Z,1006.22
2018-05-03T06:04:24.375Z,1006.22
2018-05-03T06:05:24.397Z,1006.23
2018-05-03T06:06:24.409Z,1006.24
2018-05-03T06:07:24.437Z,1006.30
2018-05-03T06:08:24.455Z,1006.33
2018-05-03T06:09:24.477Z,1006.30
2018-05-03T06:10:24.512Z,1006.36
2018-05-03T06:11:24.515Z,1006.37
2018-05-03T06:12:24.591Z,1006.42
2018-05-03T06:13:24.558Z,1006.48
2018-05-03T06:14:24.582Z,1006.52
2018-05-03T06:15:24.599Z,1006.50
2018-05-03T06:16:24.620Z,1006.51
2018-05-03T06:17:24.647Z,1006.45
2018-05-03T06:18:24.660Z,1006.44
2018-05-03T06:19:24.692Z,1006.42
2018-05-03T06:20:24.711Z,1006.43
2018-05-03T06:21:24.725Z,1006.40
2018-05-03T06:22:24.751Z,1006.40
2018-05-03T06:23:24.766Z,1006.38
2018-05-03T06:24:24.791Z,1006.41
2018-05-03T06:25:24.820Z,1006.35
2018-05-03T06:26:24.836Z,1006.36
2018-05-03T06:27:24.856Z,1006.36
2018-05-03T06:28:25.231Z,1006.41
2018-05-03T06:29:24.899Z,1006.44
2018-05-03T06:30:24.926Z,1006.48
2018-05-03T06:31:24.948Z,1006.50
2018-05-03T06:32:24.962Z,1006.52
2018-05-03T06:33:24.986Z,1006.55
2018-05-03T06:34:25.040Z,1006.53
2018-05-03T06:35:25.031Z,1006.56
2018-05-03T06:36:25.053Z,1006.51
2018-05-03T06:37:25.079Z,1006.54
2018-05-03T06:38:25.113Z,1006.56
2018-05-03T06:39:25.118Z,1006.60
2018-05-03T06:40:25.143Z,1006.60
2018-05-03T06:41:25.169Z,1006.57
2018-05-03T06:42:25.195Z,1006.54
2018-05-03T06:43:25.210Z,1006.55
2018-05-03T06:44:25.236Z,1006.60
2018-05-03T06:45:25.358Z,1006.61
2018-05-03T06:46:25.288Z,1006.59
2018-05-03T06:47:25.301Z,1006.61
2018-05-03T06:48:25.327Z,1006.64
2018-05-03T06:49:25.354Z,1006.57
2018-05-03T06:50:25.379Z,1006.54
2018-05-03T06:51:25.425Z,1006.64
2018-05-03T06:52:25.418Z,1006.66
2018-05-03T06:53:25.445Z,1006.69
2018-05-03T06:54:25.470Z,1006.68
2018-05-03T06:55:25.497Z,1006.73
2018-05-03T06:56:25.511Z,1006.75
2018-05-03T06:57:25.535Z,1006.75
2018-05-03T06:58:25.560Z,1006.84
2018-05-03T06:59:25.620Z,1006.77
2018-05-03T07:00:25.602Z,1006.79
2018-05-03T07:01:25.627Z,1006.82
2018-05-03T07:02:25.653Z,1006.79
2018-05-03T07:03:25.679Z,1006.81
2018-05-03T07:04:25.802Z,1006.80
2018-05-03T07:05:25.718Z,1006.82
2018-05-03T07:06:25.759Z,1006.87
2018-05-03T07:07:25.770Z,1006.89
2018-05-03T07:08:25.784Z,1006.94
2018-05-03T07:09:25.809Z,1006.94
2018-05-03T07:10:25.836Z,1006.99
2018-05-03T07:11:25.851Z,1006.94
2018-05-03T07:12:25.874Z,1007.00
2018-05-03T07:13:25.900Z,1007.07
2018-05-03T07:14:25.927Z,1007.05
2018-05-03T07:15:25.941Z,1007.13
2018-05-03T07:16:26.031Z,1007.14
2018-05-03T07:17:25.992Z,1007.20
2018-05-03T07:18:26.019Z,1007.24
2018-05-03T07:19:26.031Z,1007.30
2018-05-03T07:20:26.058Z,1007.35
2018-05-03T07:21:26.084Z,1007.39
2018-05-03T07:22:26.177Z,1007.44
2018-05-03T07:23:26.133Z,1007.51
2018-05-03T07:24:26.149Z,1007.57
2018-05-03T07:25:26.180Z,1007.57
2018-05-03T07:26:26.188Z,1007.66
2018-05-03T07:27:26.214Z,1007.66
2018-05-03T07:28:26.240Z,1007.70
2018-05-03T07:29:26.322Z,1007.68
2018-05-03T07:30:26.281Z,1007.74
2018-05-03T07:31:26.308Z,1007.75
2018-05-03T07:32:26.332Z,1007.78
2018-05-03T07:33:26.348Z,1007.75
2018-05-03T07:34:26.372Z,1007.77
2018-05-03T07:35:26.397Z,1007.85
2018-05-03T07:36:26.423Z,1007.88
2018-05-03T07:37:26.437Z,1007.88
2018-05-03T07:38:26.464Z,1007.91
2018-05-03T07:39:26.488Z,1007.98
2018-05-03T07:40:26.515Z,1008.06
2018-05-03T07:41:26.528Z,1008.07
2018-05-03T07:42:26.567Z,1008.09
2018-05-03T07:43:26.581Z,1008.14
2018-05-03T07:44:26.605Z,1008.17
2018-05-03T07:45:26.619Z,1008.21
2018-05-03T07:46:26.646Z,1008.23
2018-05-03T07:47:26.680Z,1008.25
2018-05-03T07:48:26.775Z,1008.25
2018-05-03T07:49:26.727Z,1008.28
2018-05-03T07:50:26.739Z,1008.26
2018-05-03T07:51:26.764Z,1008.26
2018-05-03T07:52:26.792Z,1008.27
2018-05-03T07:53:26.814Z,1008.30
2018-05-03T07:54:26.829Z,1008.25
2018-05-03T07:55:26.855Z,1008.27
2018-05-03T07:56:26.881Z,1008.33
2018-05-03T07:57:26.907Z,1008.41
2018-05-03T07:58:26.920Z,1008.39
2018-05-03T07:59:26.945Z,1008.45
2018-05-03T08:00:26.973Z,1008.41
2018-05-03T08:01:27.002Z,1008.43
2018-05-03T08:02:27.024Z,1008.50
2018-05-03T08:03:27.049Z,1008.48
2018-05-03T08:04:27.065Z,1008.49
2018-05-03T08:05:27.090Z,1008.47
2018-05-03T08:06:27.464Z,1008.48
2018-05-03T08:07:27.141Z,1008.45
2018-05-03T08:08:27.172Z,1008.46
2018-05-03T08:09:27.194Z,1008.42
2018-05-03T08:10:27.207Z,1008.42
2018-05-03T08:11:27.246Z,1008.40
2018-05-03T08:12:27.267Z,1008.40
2018-05-03T08:13:27.287Z,1008.42
2018-05-03T08:14:27.310Z,1008.35
2018-05-03T08:15:27.336Z,1008.25
2018-05-03T08:16:27.362Z,1008.24
2018-05-03T08:17:27.402Z,1008.24
2018-05-03T08:18:27.418Z,1008.20
2018-05-03T08:19:27.429Z,1008.21
2018-05-03T08:20:27.455Z,1008.22
2018-05-03T08:21:27.481Z,1008.20
2018-05-03T08:22:27.555Z,1008.21
2018-05-03T08:23:27.532Z,1008.23
2018-05-03T08:24:27.558Z,1008.24
2018-05-03T08:25:27.584Z,1008.26
2018-05-03T08:26:27.610Z,1008.26
2018-05-03T08:27:27.636Z,1008.26
2018-05-03T08:28:27.664Z,1008.26
2018-05-03T08:29:27.676Z,1008.34
2018-05-03T08:30:27.702Z,1008.39
2018-05-03T08:31:27.732Z,1008.38
2018-05-03T08:32:27.753Z,1008.43
2018-05-03T08:33:27.778Z,1008.44
2018-05-03T08:34:27.805Z,1008.40
2018-05-03T08:35:27.831Z,1008.42
2018-05-03T08:36:27.847Z,1008.45
2018-05-03T08:37:27.873Z,1008.44
2018-05-03T08:38:27.897Z,1008.45
2018-05-03T08:39:27.923Z,1008.39
2018-05-03T08:40:27.949Z,1008.42
2018-05-03T08:41:27.975Z,1008.44
2018-05-03T08:42:27.987Z,1008.44
2018-05-03T08:43:28.013Z,1008.42
2018-05-03T08:44:28.127Z,1008.41
2018-05-03T08:45:28.079Z,1008.45
2018-05-03T08:46:28.094Z,1008.40
2018-05-03T08:47:28.107Z,1008.39
2018-05-03T08:48:28.131Z,1008.40
2018-05-03T08:49:28.158Z,1008.33
2018-05-03T08:50:28.183Z,1008.36
2018-05-03T08:51:28.209Z,1008.37
2018-05-03T08:52:28.223Z,1008.36
2018-05-03T08:53:28.250Z,1008.39
2018-05-03T08:54:28.275Z,1008.44
2018-05-03T08:55:28.312Z,1008.37
2018-05-03T08:56:28.325Z,1008.42
2018-05-03T08:57:28.341Z,1008.39
2018-05-03T08:58:28.366Z,1008.43
2018-05-03T08:59:28.392Z,1008.44
2018-05-03T09:00:28.418Z,1008.41
2018-05-03T09:01:28.512Z,1008.47
2018-05-03T09:02:28.479Z,1008.52
2018-05-03T09:03:28.482Z,1008.49
2018-05-03T09:04:28.509Z,1008.46
2018-05-03T09:05:28.535Z,1008.49
2018-05-03T09:06:28.562Z,1008.51
2018-05-03T09:07:28.579Z,1008.54
2018-05-03T09:08:28.605Z,1008.60
2018-05-03T09:09:28.627Z,1008.61
2018-05-03T09:10:28.653Z,1008.65
2018-05-03T09:11:28.678Z,1008.66
2018-05-03T09:12:28.691Z,1008.71
2018-05-03T09:13:28.717Z,1008.73
2018-05-03T09:14:28.757Z,1008.76
2018-05-03T09:15:28.771Z,1008.78
2018-05-03T09:16:28.795Z,1008.78
2018-05-03T09:17:28.810Z,1008.77
2018-05-03T09:18:28.836Z,1008.85
2018-05-03T09:19:28.862Z,1008.86
2018-05-03T09:20:28.888Z,1008.86
2018-05-03T09:21:28.914Z,1008.86
2018-05-03T09:22:28.941Z,1008.87
2018-05-03T09:23:28.952Z,1008.85
2018-05-03T09:24:28.984Z,1008.87
2018-05-03T09:25:29.004Z,1008.91
2018-05-03T09:26:29.033Z,1008.87
2018-05-03T09:27:29.056Z,1008.88
2018-05-03T09:28:29.073Z,1008.91
2018-05-03T09:29:29.096Z,1008.95
2018-05-03T09:30:29.123Z,1008.94
2018-05-03T09:31:29.148Z,1008.92
2018-05-03T09:32:29.174Z,1008.92
2018-05-03T09:33:29.187Z,1008.91
2018-05-03T09:34:29.213Z,1008.93
2018-05-03T09:35:29.238Z,1008.91
2018-05-03T09:36:29.278Z,1008.95
2018-05-03T09:37:29.290Z,1008.92
2018-05-03T09:38:29.317Z,1008.91
2018-05-03T09:39:29.332Z,1008.94
2018-05-03T09:40:29.356Z,1008.96
2018-05-03T09:41:29.382Z,1009.01
2018-05-03T09:42:29.409Z,1009.03
2018-05-03T09:43:29.437Z,1008.99
2018-05-03T09:44:29.543Z,1009.01
2018-05-03T09:45:29.486Z,1009.04
2018-05-03T09:46:29.500Z,1009.08
2018-05-03T09:47:29.525Z,1009.05
2018-05-03T09:48:29.552Z,1009.01
2018-05-03T09:49:29.577Z,1009.02
2018-05-03T09:50:29.603Z,1009.02
2018-05-03T09:51:29.628Z,1009.01
2018-05-03T09:52:29.658Z,1008.99
2018-05-03T09:53:29.681Z,1009.03
2018-05-03T09:54:29.707Z,1009.01
2018-05-03T09:55:29.733Z,1009.01
2018-05-03T09:56:29.759Z,1009.05
2018-05-03T09:57:29.784Z,1009.03
2018-05-03T09:58:29.821Z,1008.90
2018-05-03T09:59:29.840Z,1008.96
2018-05-03T10:00:29.878Z,1009.01
2018-05-03T10:01:29.891Z,1009.02
2018-05-03T10:02:29.928Z,1008.93
2018-05-03T10:03:29.954Z,1008.90
2018-05-03T10:04:29.982Z,1008.96
2018-05-03T10:05:30.018Z,1008.97
2018-05-03T10:06:30.033Z,1009.04
2018-05-03T10:07:30.069Z,1009.04
2018-05-03T10:08:30.096Z,1009.03
2018-05-03T10:09:30.121Z,1009.07
2018-05-03T10:10:30.148Z,1008.99
2018-05-03T10:11:30.187Z,1009.01
2018-05-03T10:12:30.213Z,1009.02
2018-05-03T10:13:30.239Z,1009.10
2018-05-03T10:14:30.339Z,1009.03
2018-05-03T10:15:30.303Z,1009.05
2018-05-03T10:16:30.341Z,1009.09
2018-05-03T10:17:30.368Z,1009.16
2018-05-03T10:18:30.404Z,1009.16
2018-05-03T10:19:30.432Z,1009.15
2018-05-03T10:20:30.457Z,1009.18
2018-05-03T10:21:30.484Z,1009.26
2018-05-03T10:22:30.543Z,1009.24
2018-05-03T10:23:30.549Z,1009.27
2018-05-03T10:24:30.575Z,1009.24
2018-05-03T10:25:30.615Z,1009.28
2018-05-03T10:26:30.652Z,1009.30
2018-05-03T10:27:30.665Z,1009.29
2018-05-03T10:28:30.704Z,1009.28
2018-05-03T10:29:30.730Z,1009.26
2018-05-03T10:30:30.767Z,1009.29
2018-05-03T10:31:30.794Z,1009.29
2018-05-03T10:32:30.832Z,1009.33
2018-05-03T10:33:30.870Z,1009.31
2018-05-03T10:34:30.896Z,1009.30
2018-05-03T10:35:30.939Z,1009.37
2018-05-03T10:36:30.973Z,1009.38
2018-05-03T10:37:30.999Z,1009.39
2018-05-03T10:38:31.040Z,1009.35
2018-05-03T10:39:31.092Z,1009.37
2018-05-03T10:40:31.101Z,1009.43
2018-05-03T10:41:31.142Z,1009.46
2018-05-03T10:42:31.179Z,1009.40
2018-05-03T10:43:31.219Z,1009.44
2018-05-03T10:44:31.246Z,1009.48
2018-05-03T10:45:31.289Z,1009.49
2018-05-03T10:46:31.329Z,1009.50
2018-05-03T10:47:31.358Z,1009.52
2018-05-03T10:48:31.600Z,1009.47
2018-05-03T10:49:31.436Z,1009.47
2018-05-03T10:50:31.463Z,1009.54
2018-05-03T10:51:31.500Z,1009.48
2018-05-03T10:52:31.538Z,1009.50
2018-05-03T10:53:31.578Z,1009.54
2018-05-03T10:54:31.616Z,1009.52
2018-05-03T10:55:31.655Z,1009.56
2018-05-03T10:56:31.697Z,1009.53
2018-05-03T10:57:31.749Z,1009.42
2018-05-03T10:58:31.769Z,1009.59
2018-05-03T10:59:31.811Z,1009.56
2018-05-03T11:00:31.848Z,1009.62
2018-05-03T11:01:31.888Z,1009.59
2018-05-03T11:02:31.926Z,1009.59
2018-05-03T11:03:31.963Z,1009.55
2018-05-03T11:04:32.003Z,1009.59
2018-05-03T11:05:32.162Z,1009.60
2018-05-03T11:06:32.065Z,1009.65
2018-05-03T11:07:32.106Z,1009.65
2018-05-03T11:08:32.142Z,1009.58
2018-05-03T11:09:32.188Z,1009.55
2018-05-03T11:10:32.219Z,1009.57
2018-05-03T11:11:32.260Z,1009.51
2018-05-03T11:12:32.298Z,1009.56
2018-05-03T11:13:32.348Z,1009.57
2018-05-03T11:14:32.379Z,1009.61
2018-05-03T11:15:32.413Z,1009.59
2018-05-03T11:16:32.461Z,1009.63
2018-05-03T11:17:32.500Z,1009.51
2018-05-03T11:18:32.538Z,1009.64
2018-05-03T11:19:32.579Z,1009.61
2018-05-03T11:20:32.630Z,1009.67
2018-05-03T11:21:32.656Z,1009.64
2018-05-03T11:22:32.694Z,1009.64
2018-05-03T11:23:32.732Z,1009.66
2018-05-03T11:24:32.768Z,1009.69
2018-05-03T11:25:32.808Z,1009.70
2018-05-03T11:26:32.847Z,1009.70
2018-05-03T11:27:32.887Z,1009.71
2018-05-03T11:28:32.925Z,1009.66
2018-05-03T11:29:32.964Z,1009.69
2018-05-03T11:30:33.002Z,1009.73
2018-05-03T11:31:33.119Z,1009.70
2018-05-03T11:32:33.080Z,1009.77
2018-05-03T11:33:33.118Z,1009.81
2018-05-03T11:34:33.154Z,1009.82
2018-05-03T11:35:33.196Z,1009.87
2018-05-03T11:37:33.272Z,1009.81
2018-05-03T11:38:33.310Z,1009.78
2018-05-03T11:39:33.362Z,1009.69
2018-05-03T11:40:33.400Z,1009.79
2018-05-03T11:41:33.438Z,1009.72
2018-05-03T11:42:33.478Z,1009.85
2018-05-03T11:43:33.515Z,1009.73
2018-05-03T11:44:33.551Z,1009.92
2018-05-03T11:45:33.589Z,1009.91
2018-05-03T11:46:33.832Z,1009.83
2018-05-03T11:47:33.668Z,1009.87
2018-05-03T11:48:33.707Z,1009.84
2018-05-03T11:49:33.745Z,1009.96
2018-05-03T11:50:33.784Z,1010.02
2018-05-03T11:52:33.862Z,1010.08
2018-05-03T11:53:33.898Z,1009.99
2018-05-03T11:54:33.935Z,1009.97
2018-05-03T11:55:33.975Z,1010.02
2018-05-03T11:56:34.025Z,1010.01
2018-05-03T11:57:34.065Z,1010.06
2018-05-03T11:58:34.101Z,1010.08
2018-05-03T11:59:34.143Z,1010.04
2018-05-03T12:00:34.179Z,1010.07
2018-05-03T12:01:34.220Z,1010.07
2018-05-03T12:02:34.259Z,1010.01
2018-05-03T12:03:34.285Z,1010.04
2018-05-03T12:04:34.335Z,1010.13
2018-05-03T12:05:34.360Z,1010.09
2018-05-03T12:06:34.398Z,1010.05
2018-05-03T12:07:34.436Z,1010.08